Terminal Aerodrome Forecast
Issued by NWS

Home | Current Version | Previous Version | Text Only | Print | Product List | Glossary On
Versions: 1 2 3 4 5 6 7 8 9 10 11 12
776
FTUS45 KABQ 051726
TAFFMN
TAF
KFMN 051726Z 0518/0618 12011KT P6SM SCT150
     FM051930 15013G21KT P6SM SCT120
     FM060000 13015KT P6SM VCSH BKN100
      TEMPO 0601/0605 VRB20G30KT -SHRA BKN090
     FM060500 10010KT P6SM BKN120=

USA.gov is the U.S. government's official web portal to all federal, state and local government web resources and services.